Marshall, Arkansas
Current Conditions -  °F | °C
As of 5:35 PM on Saturday 20 Dec 2014 (Local Time) from KCCA Reporting Station
Overcast Overcast  
Wind Chill: 46°   Ceiling: 2300
Heat Index: 46°   Visibility: 7mi
Dew Point: 39°   Wind: 3mph
Humidity: 76%   Direction: 90°E
Pressure: 30.24"   Gusts: NA
Location:  35.91°N, 92.63°W
Report Text: KCCA 202335Z AUTO 09003KT 7SM OVC023 08/04 A3024 RMK AO2
Loading
Personal Weather Stations






























Interactive Weather Map New forecast layout! Learn more

10-Day Weather Forecast

Advertisements
Track Severe Weather on mobile